sensor_id;sensor_type;location;lat;lon;timestamp;P1;durP1;ratioP1;P2;durP2;ratioP2
37047;SDS011;23227;48.780;9.210;2024-03-08T00:02:58;2.77;;;2.17;;
37047;SDS011;23227;48.780;9.210;2024-03-08T00:06:04;5.03;;;2.40;;
37047;SDS011;23227;48.780;9.210;2024-03-08T00:09:08;5.72;;;2.88;;
37047;SDS011;23227;48.780;9.210;2024-03-08T00:12:11;4.83;;;2.30;;
37047;SDS011;23227;48.780;9.210;2024-03-08T00:15:14;6.25;;;2.00;;
37047;SDS011;23227;48.780;9.210;2024-03-08T00:18:20;8.07;;;2.80;;
37047;SDS011;23227;48.780;9.210;2024-03-08T00:21:23;5.07;;;2.45;;
37047;SDS011;23227;48.780;9.210;2024-03-08T00:24:29;3.70;;;2.30;;
37047;SDS011;23227;48.780;9.210;2024-03-08T00:27:32;7.67;;;2.83;;
37047;SDS011;23227;48.780;9.210;2024-03-08T00:30:34;5.18;;;2.35;;
37047;SDS011;23227;48.780;9.210;2024-03-08T00:33:37;4.05;;;2.47;;
37047;SDS011;23227;48.780;9.210;2024-03-08T00:36:41;4.80;;;2.70;;
37047;SDS011;23227;48.780;9.210;2024-03-08T00:39:45;3.95;;;2.47;;
37047;SDS011;23227;48.780;9.210;2024-03-08T00:42:47;2.50;;;2.07;;
37047;SDS011;23227;48.780;9.210;2024-03-08T00:45:50;5.93;;;2.78;;
37047;SDS011;23227;48.780;9.210;2024-03-08T00:48:52;3.47;;;2.05;;
37047;SDS011;23227;48.780;9.210;2024-03-08T00:51:56;2.80;;;2.00;;
37047;SDS011;23227;48.780;9.210;2024-03-08T00:55:00;2.78;;;2.05;;
37047;SDS011;23227;48.780;9.210;2024-03-08T00:58:03;4.70;;;2.30;;
37047;SDS011;23227;48.780;9.210;2024-03-08T01:01:05;4.13;;;2.55;;
37047;SDS011;23227;48.780;9.210;2024-03-08T01:04:08;3.75;;;2.30;;
37047;SDS011;23227;48.780;9.210;2024-03-08T01:07:11;4.88;;;2.30;;
37047;SDS011;23227;48.780;9.210;2024-03-08T01:10:15;2.80;;;1.95;;
37047;SDS011;23227;48.780;9.210;2024-03-08T01:13:17;5.67;;;2.77;;
37047;SDS011;23227;48.780;9.210;2024-03-08T01:16:20;4.57;;;2.80;;
37047;SDS011;23227;48.780;9.210;2024-03-08T01:19:23;2.88;;;1.98;;
37047;SDS011;23227;48.780;9.210;2024-03-08T01:22:26;4.22;;;2.70;;
37047;SDS011;23227;48.780;9.210;2024-03-08T01:28:33;3.27;;;2.57;;
37047;SDS011;23227;48.780;9.210;2024-03-08T01:31:36;5.05;;;2.13;;
37047;SDS011;23227;48.780;9.210;2024-03-08T01:34:38;6.63;;;2.33;;
37047;SDS011;23227;48.780;9.210;2024-03-08T01:37:42;4.33;;;2.40;;
37047;SDS011;23227;48.780;9.210;2024-03-08T01:40:45;3.05;;;2.15;;
37047;SDS011;23227;48.780;9.210;2024-03-08T01:43:48;2.77;;;1.97;;
37047;SDS011;23227;48.780;9.210;2024-03-08T01:46:51;4.05;;;2.25;;
37047;SDS011;23227;48.780;9.210;2024-03-08T01:49:54;3.25;;;2.35;;
37047;SDS011;23227;48.780;9.210;2024-03-08T01:52:57;4.80;;;2.28;;
37047;SDS011;23227;48.780;9.210;2024-03-08T01:56:02;2.77;;;2.03;;
37047;SDS011;23227;48.780;9.210;2024-03-08T01:59:05;2.60;;;2.37;;
37047;SDS011;23227;48.780;9.210;2024-03-08T02:05:11;3.23;;;1.83;;
37047;SDS011;23227;48.780;9.210;2024-03-08T02:08:15;3.13;;;2.20;;
37047;SDS011;23227;48.780;9.210;2024-03-08T02:11:19;3.08;;;2.40;;
37047;SDS011;23227;48.780;9.210;2024-03-08T02:14:22;3.20;;;2.33;;
37047;SDS011;23227;48.780;9.210;2024-03-08T02:17:25;3.15;;;2.20;;
37047;SDS011;23227;48.780;9.210;2024-03-08T02:20:30;3.63;;;2.35;;
37047;SDS011;23227;48.780;9.210;2024-03-08T02:23:33;2.30;;;1.77;;
37047;SDS011;23227;48.780;9.210;2024-03-08T02:26:36;2.47;;;1.70;;
37047;SDS011;23227;48.780;9.210;2024-03-08T02:29:39;2.78;;;2.00;;
37047;SDS011;23227;48.780;9.210;2024-03-08T02:32:42;2.13;;;1.93;;
37047;SDS011;23227;48.780;9.210;2024-03-08T02:35:46;2.58;;;2.17;;
37047;SDS011;23227;48.780;9.210;2024-03-08T02:38:50;3.87;;;2.03;;
37047;SDS011;23227;48.780;9.210;2024-03-08T02:41:52;2.85;;;2.10;;
37047;SDS011;23227;48.780;9.210;2024-03-08T02:44:55;3.72;;;2.20;;
37047;SDS011;23227;48.780;9.210;2024-03-08T02:47:59;2.40;;;2.20;;
37047;SDS011;23227;48.780;9.210;2024-03-08T02:51:04;2.90;;;2.20;;
37047;SDS011;23227;48.780;9.210;2024-03-08T02:54:07;3.50;;;2.63;;
37047;SDS011;23227;48.780;9.210;2024-03-08T02:57:11;2.80;;;2.13;;
37047;SDS011;23227;48.780;9.210;2024-03-08T03:00:16;3.90;;;2.17;;
37047;SDS011;23227;48.780;9.210;2024-03-08T03:03:20;2.90;;;2.33;;
37047;SDS011;23227;48.780;9.210;2024-03-08T03:06:24;2.45;;;1.77;;
37047;SDS011;23227;48.780;9.210;2024-03-08T03:09:27;2.37;;;2.13;;
37047;SDS011;23227;48.780;9.210;2024-03-08T03:12:30;2.30;;;2.10;;
37047;SDS011;23227;48.780;9.210;2024-03-08T03:15:35;2.97;;;2.17;;
37047;SDS011;23227;48.780;9.210;2024-03-08T03:18:38;2.60;;;2.00;;
37047;SDS011;23227;48.780;9.210;2024-03-08T03:21:42;4.07;;;2.35;;
37047;SDS011;23227;48.780;9.210;2024-03-08T03:24:45;3.03;;;2.30;;
37047;SDS011;23227;48.780;9.210;2024-03-08T03:27:48;2.63;;;2.00;;
37047;SDS011;23227;48.780;9.210;2024-03-08T03:30:50;2.55;;;1.95;;
37047;SDS011;23227;48.780;9.210;2024-03-08T03:33:54;3.07;;;2.43;;
37047;SDS011;23227;48.780;9.210;2024-03-08T03:37:03;3.07;;;2.23;;
37047;SDS011;23227;48.780;9.210;2024-03-08T03:40:08;2.37;;;2.00;;
37047;SDS011;23227;48.780;9.210;2024-03-08T03:46:14;3.08;;;2.10;;
37047;SDS011;23227;48.780;9.210;2024-03-08T03:49:17;2.47;;;1.85;;
37047;SDS011;23227;48.780;9.210;2024-03-08T03:52:21;2.38;;;1.75;;
37047;SDS011;23227;48.780;9.210;2024-03-08T03:55:24;2.93;;;1.90;;
37047;SDS011;23227;48.780;9.210;2024-03-08T03:58:26;2.22;;;1.88;;
37047;SDS011;23227;48.780;9.210;2024-03-08T04:01:29;3.05;;;2.20;;
37047;SDS011;23227;48.780;9.210;2024-03-08T04:04:32;3.03;;;2.35;;
37047;SDS011;23227;48.780;9.210;2024-03-08T04:07:36;3.05;;;2.10;;
37047;SDS011;23227;48.780;9.210;2024-03-08T04:10:39;4.93;;;2.37;;
37047;SDS011;23227;48.780;9.210;2024-03-08T04:13:43;2.53;;;1.90;;
37047;SDS011;23227;48.780;9.210;2024-03-08T04:16:45;3.38;;;1.88;;
37047;SDS011;23227;48.780;9.210;2024-03-08T04:19:49;2.77;;;2.07;;
37047;SDS011;23227;48.780;9.210;2024-03-08T04:22:53;2.75;;;2.38;;
37047;SDS011;23227;48.780;9.210;2024-03-08T04:25:56;3.17;;;2.10;;
37047;SDS011;23227;48.780;9.210;2024-03-08T04:28:59;2.13;;;1.90;;
37047;SDS011;23227;48.780;9.210;2024-03-08T04:32:02;2.20;;;1.83;;
37047;SDS011;23227;48.780;9.210;2024-03-08T04:35:05;3.23;;;2.20;;
37047;SDS011;23227;48.780;9.210;2024-03-08T04:38:09;3.40;;;2.30;;
37047;SDS011;23227;48.780;9.210;2024-03-08T04:41:12;2.27;;;1.90;;
37047;SDS011;23227;48.780;9.210;2024-03-08T04:44:15;3.60;;;2.10;;
37047;SDS011;23227;48.780;9.210;2024-03-08T04:47:19;2.30;;;2.00;;
37047;SDS011;23227;48.780;9.210;2024-03-08T04:50:21;2.72;;;1.88;;
37047;SDS011;23227;48.780;9.210;2024-03-08T04:53:26;3.00;;;2.03;;
37047;SDS011;23227;48.780;9.210;2024-03-08T04:56:28;3.90;;;2.30;;
37047;SDS011;23227;48.780;9.210;2024-03-08T04:59:31;1.85;;;1.73;;
37047;SDS011;23227;48.780;9.210;2024-03-08T05:02:34;2.30;;;2.08;;
37047;SDS011;23227;48.780;9.210;2024-03-08T05:05:37;2.37;;;1.77;;
37047;SDS011;23227;48.780;9.210;2024-03-08T05:08:41;2.03;;;1.50;;
37047;SDS011;23227;48.780;9.210;2024-03-08T05:11:44;2.30;;;1.67;;
37047;SDS011;23227;48.780;9.210;2024-03-08T05:14:48;2.30;;;1.83;;
37047;SDS011;23227;48.780;9.210;2024-03-08T05:17:51;1.70;;;1.57;;
37047;SDS011;23227;48.780;9.210;2024-03-08T05:20:54;2.00;;;1.77;;
37047;SDS011;23227;48.780;9.210;2024-03-08T05:23:58;13.00;;;7.90;;
37047;SDS011;23227;48.780;9.210;2024-03-08T05:27:01;13.57;;;7.97;;
37047;SDS011;23227;48.780;9.210;2024-03-08T05:30:04;13.37;;;9.13;;
37047;SDS011;23227;48.780;9.210;2024-03-08T05:33:08;12.73;;;8.50;;
37047;SDS011;23227;48.780;9.210;2024-03-08T05:36:11;15.80;;;9.27;;
37047;SDS011;23227;48.780;9.210;2024-03-08T05:39:18;13.37;;;7.93;;
37047;SDS011;23227;48.780;9.210;2024-03-08T05:42:22;18.77;;;6.27;;
37047;SDS011;23227;48.780;9.210;2024-03-08T05:45:25;10.10;;;5.95;;
37047;SDS011;23227;48.780;9.210;2024-03-08T05:48:27;8.32;;;4.82;;
37047;SDS011;23227;48.780;9.210;2024-03-08T05:51:30;7.93;;;4.38;;
37047;SDS011;23227;48.780;9.210;2024-03-08T05:54:34;5.78;;;4.03;;
37047;SDS011;23227;48.780;9.210;2024-03-08T05:57:37;4.67;;;3.47;;
37047;SDS011;23227;48.780;9.210;2024-03-08T06:00:41;6.03;;;3.80;;
37047;SDS011;23227;48.780;9.210;2024-03-08T06:03:44;6.78;;;3.67;;
37047;SDS011;23227;48.780;9.210;2024-03-08T06:06:46;7.88;;;3.85;;
37047;SDS011;23227;48.780;9.210;2024-03-08T06:09:54;6.20;;;3.50;;
37047;SDS011;23227;48.780;9.210;2024-03-08T06:12:56;11.53;;;5.37;;
37047;SDS011;23227;48.780;9.210;2024-03-08T06:15:59;11.10;;;5.05;;
37047;SDS011;23227;48.780;9.210;2024-03-08T06:19:05;10.53;;;5.70;;
37047;SDS011;23227;48.780;9.210;2024-03-08T06:22:08;8.30;;;5.80;;
37047;SDS011;23227;48.780;9.210;2024-03-08T06:25:12;8.82;;;5.15;;
37047;SDS011;23227;48.780;9.210;2024-03-08T06:28:16;9.53;;;5.50;;
37047;SDS011;23227;48.780;9.210;2024-03-08T06:31:19;8.50;;;5.47;;
37047;SDS011;23227;48.780;9.210;2024-03-08T06:34:21;10.18;;;5.88;;
37047;SDS011;23227;48.780;9.210;2024-03-08T06:37:24;8.77;;;5.80;;
37047;SDS011;23227;48.780;9.210;2024-03-08T06:40:28;7.10;;;4.95;;
37047;SDS011;23227;48.780;9.210;2024-03-08T06:43:30;11.00;;;6.17;;
37047;SDS011;23227;48.780;9.210;2024-03-08T06:46:35;11.80;;;5.53;;
37047;SDS011;23227;48.780;9.210;2024-03-08T06:49:39;7.83;;;4.70;;
37047;SDS011;23227;48.780;9.210;2024-03-08T06:52:42;6.05;;;4.20;;
37047;SDS011;23227;48.780;9.210;2024-03-08T06:55:47;6.87;;;4.63;;
37047;SDS011;23227;48.780;9.210;2024-03-08T06:58:49;7.30;;;4.47;;
37047;SDS011;23227;48.780;9.210;2024-03-08T07:01:52;6.32;;;4.68;;
37047;SDS011;23227;48.780;9.210;2024-03-08T07:04:55;4.75;;;3.33;;
37047;SDS011;23227;48.780;9.210;2024-03-08T07:07:58;6.15;;;3.92;;
37047;SDS011;23227;48.780;9.210;2024-03-08T07:11:02;5.70;;;3.83;;
37047;SDS011;23227;48.780;9.210;2024-03-08T07:14:05;7.63;;;4.07;;
37047;SDS011;23227;48.780;9.210;2024-03-08T07:17:08;6.38;;;3.53;;
37047;SDS011;23227;48.780;9.210;2024-03-08T07:20:10;5.75;;;3.50;;
37047;SDS011;23227;48.780;9.210;2024-03-08T07:23:14;5.87;;;3.60;;
37047;SDS011;23227;48.780;9.210;2024-03-08T07:26:39;4.22;;;3.25;;
37047;SDS011;23227;48.780;9.210;2024-03-08T07:29:42;5.33;;;3.73;;
37047;SDS011;23227;48.780;9.210;2024-03-08T07:32:44;4.88;;;3.28;;
37047;SDS011;23227;48.780;9.210;2024-03-08T07:35:47;4.78;;;3.15;;
37047;SDS011;23227;48.780;9.210;2024-03-08T07:38:51;5.97;;;3.40;;
37047;SDS011;23227;48.780;9.210;2024-03-08T07:41:56;4.05;;;2.70;;
37047;SDS011;23227;48.780;9.210;2024-03-08T07:44:58;5.70;;;3.60;;
37047;SDS011;23227;48.780;9.210;2024-03-08T07:48:02;4.70;;;3.17;;
37047;SDS011;23227;48.780;9.210;2024-03-08T07:51:05;6.07;;;3.70;;
37047;SDS011;23227;48.780;9.210;2024-03-08T07:54:10;4.83;;;3.40;;
37047;SDS011;23227;48.780;9.210;2024-03-08T07:57:15;4.90;;;3.37;;
37047;SDS011;23227;48.780;9.210;2024-03-08T08:00:18;4.40;;;3.30;;
37047;SDS011;23227;48.780;9.210;2024-03-08T08:03:21;3.92;;;3.13;;
37047;SDS011;23227;48.780;9.210;2024-03-08T08:06:23;5.00;;;2.92;;
37047;SDS011;23227;48.780;9.210;2024-03-08T08:09:26;3.30;;;2.50;;
37047;SDS011;23227;48.780;9.210;2024-03-08T08:12:37;5.77;;;2.63;;
37047;SDS011;23227;48.780;9.210;2024-03-08T08:15:40;3.83;;;2.97;;
37047;SDS011;23227;48.780;9.210;2024-03-08T08:18:43;3.70;;;2.88;;
37047;SDS011;23227;48.780;9.210;2024-03-08T08:21:47;2.90;;;2.30;;
37047;SDS011;23227;48.780;9.210;2024-03-08T08:24:50;5.03;;;3.20;;
37047;SDS011;23227;48.780;9.210;2024-03-08T08:27:54;3.73;;;2.73;;
37047;SDS011;23227;48.780;9.210;2024-03-08T08:30:57;3.57;;;2.93;;
37047;SDS011;23227;48.780;9.210;2024-03-08T08:34:00;4.10;;;2.90;;
37047;SDS011;23227;48.780;9.210;2024-03-08T08:37:04;3.83;;;2.93;;
37047;SDS011;23227;48.780;9.210;2024-03-08T08:40:07;5.30;;;2.75;;
37047;SDS011;23227;48.780;9.210;2024-03-08T08:43:13;4.60;;;3.30;;
37047;SDS011;23227;48.780;9.210;2024-03-08T08:46:16;3.33;;;2.37;;
37047;SDS011;23227;48.780;9.210;2024-03-08T08:49:21;3.37;;;2.53;;
37047;SDS011;23227;48.780;9.210;2024-03-08T08:52:25;3.80;;;2.37;;
37047;SDS011;23227;48.780;9.210;2024-03-08T08:55:27;5.13;;;2.58;;
37047;SDS011;23227;48.780;9.210;2024-03-08T08:58:33;3.47;;;2.70;;
37047;SDS011;23227;48.780;9.210;2024-03-08T09:01:36;4.87;;;2.80;;
37047;SDS011;23227;48.780;9.210;2024-03-08T09:07:42;3.30;;;2.83;;
37047;SDS011;23227;48.780;9.210;2024-03-08T09:10:46;4.43;;;3.03;;
37047;SDS011;23227;48.780;9.210;2024-03-08T09:13:53;5.13;;;2.60;;
37047;SDS011;23227;48.780;9.210;2024-03-08T09:16:56;4.80;;;2.87;;
37047;SDS011;23227;48.780;9.210;2024-03-08T09:19:58;4.40;;;3.08;;
37047;SDS011;23227;48.780;9.210;2024-03-08T09:23:01;3.75;;;2.67;;
37047;SDS011;23227;48.780;9.210;2024-03-08T09:26:05;3.97;;;2.90;;
37047;SDS011;23227;48.780;9.210;2024-03-08T09:29:24;2.30;;;2.10;;
37047;SDS011;23227;48.780;9.210;2024-03-08T09:32:26;2.77;;;2.40;;
37047;SDS011;23227;48.780;9.210;2024-03-08T09:35:29;3.50;;;2.70;;
37047;SDS011;23227;48.780;9.210;2024-03-08T09:38:32;2.78;;;2.28;;
37047;SDS011;23227;48.780;9.210;2024-03-08T09:41:35;2.80;;;2.10;;
37047;SDS011;23227;48.780;9.210;2024-03-08T09:44:39;3.40;;;2.20;;
37047;SDS011;23227;48.780;9.210;2024-03-08T09:47:42;3.20;;;2.50;;
37047;SDS011;23227;48.780;9.210;2024-03-08T09:50:45;3.40;;;2.30;;
37047;SDS011;23227;48.780;9.210;2024-03-08T09:53:48;5.97;;;2.23;;
37047;SDS011;23227;48.780;9.210;2024-03-08T09:56:51;3.85;;;2.50;;
37047;SDS011;23227;48.780;9.210;2024-03-08T09:59:55;2.70;;;2.30;;
37047;SDS011;23227;48.780;9.210;2024-03-08T10:03:00;3.07;;;2.10;;
37047;SDS011;23227;48.780;9.210;2024-03-08T10:06:03;4.37;;;2.40;;
37047;SDS011;23227;48.780;9.210;2024-03-08T10:09:07;2.90;;;2.17;;
37047;SDS011;23227;48.780;9.210;2024-03-08T10:12:12;3.23;;;2.53;;
37047;SDS011;23227;48.780;9.210;2024-03-08T10:15:16;2.90;;;2.35;;
37047;SDS011;23227;48.780;9.210;2024-03-08T10:18:19;3.13;;;2.37;;
37047;SDS011;23227;48.780;9.210;2024-03-08T10:21:23;3.30;;;2.20;;
37047;SDS011;23227;48.780;9.210;2024-03-08T10:24:26;3.03;;;2.10;;
37047;SDS011;23227;48.780;9.210;2024-03-08T10:27:30;3.23;;;2.20;;
37047;SDS011;23227;48.780;9.210;2024-03-08T10:30:34;3.20;;;2.70;;
37047;SDS011;23227;48.780;9.210;2024-03-08T10:33:37;2.63;;;2.30;;
37047;SDS011;23227;48.780;9.210;2024-03-08T10:36:40;3.03;;;2.73;;
37047;SDS011;23227;48.780;9.210;2024-03-08T10:39:44;2.65;;;2.42;;
37047;SDS011;23227;48.780;9.210;2024-03-08T10:42:51;3.63;;;2.60;;
37047;SDS011;23227;48.780;9.210;2024-03-08T10:45:59;3.20;;;2.40;;
37047;SDS011;23227;48.780;9.210;2024-03-08T10:49:17;2.67;;;2.20;;
37047;SDS011;23227;48.780;9.210;2024-03-08T10:52:20;2.50;;;1.90;;
37047;SDS011;23227;48.780;9.210;2024-03-08T10:55:23;3.10;;;2.27;;
37047;SDS011;23227;48.780;9.210;2024-03-08T10:58:27;3.50;;;2.30;;
37047;SDS011;23227;48.780;9.210;2024-03-08T11:04:36;2.60;;;2.20;;
37047;SDS011;23227;48.780;9.210;2024-03-08T11:07:40;2.30;;;1.83;;
37047;SDS011;23227;48.780;9.210;2024-03-08T11:10:48;2.37;;;1.70;;
37047;SDS011;23227;48.780;9.210;2024-03-08T11:13:53;2.93;;;2.27;;
37047;SDS011;23227;48.780;9.210;2024-03-08T11:16:57;2.72;;;2.13;;
37047;SDS011;23227;48.780;9.210;2024-03-08T11:20:00;2.83;;;2.07;;
37047;SDS011;23227;48.780;9.210;2024-03-08T11:23:06;2.87;;;2.00;;
37047;SDS011;23227;48.780;9.210;2024-03-08T11:26:17;2.43;;;2.07;;
37047;SDS011;23227;48.780;9.210;2024-03-08T11:29:32;2.50;;;2.10;;
37047;SDS011;23227;48.780;9.210;2024-03-08T11:32:39;2.30;;;1.90;;
37047;SDS011;23227;48.780;9.210;2024-03-08T11:35:47;2.67;;;2.10;;
37047;SDS011;23227;48.780;9.210;2024-03-08T11:38:50;2.90;;;1.90;;
37047;SDS011;23227;48.780;9.210;2024-03-08T11:41:53;2.47;;;1.73;;
37047;SDS011;23227;48.780;9.210;2024-03-08T11:44:57;2.00;;;1.70;;
37047;SDS011;23227;48.780;9.210;2024-03-08T11:48:01;2.08;;;1.70;;
37047;SDS011;23227;48.780;9.210;2024-03-08T11:51:04;2.20;;;1.97;;
37047;SDS011;23227;48.780;9.210;2024-03-08T11:54:10;2.17;;;1.90;;
37047;SDS011;23227;48.780;9.210;2024-03-08T11:57:13;2.77;;;1.87;;
37047;SDS011;23227;48.780;9.210;2024-03-08T12:00:16;2.50;;;2.00;;
37047;SDS011;23227;48.780;9.210;2024-03-08T12:03:29;2.20;;;2.00;;
37047;SDS011;23227;48.780;9.210;2024-03-08T12:06:36;2.30;;;1.90;;
37047;SDS011;23227;48.780;9.210;2024-03-08T12:09:40;2.27;;;1.90;;
37047;SDS011;23227;48.780;9.210;2024-03-08T12:12:48;2.47;;;1.80;;
37047;SDS011;23227;48.780;9.210;2024-03-08T12:15:52;2.60;;;1.90;;
37047;SDS011;23227;48.780;9.210;2024-03-08T12:18:56;2.83;;;2.13;;
37047;SDS011;23227;48.780;9.210;2024-03-08T12:22:06;2.70;;;1.80;;
37047;SDS011;23227;48.780;9.210;2024-03-08T12:25:10;2.40;;;1.90;;
37047;SDS011;23227;48.780;9.210;2024-03-08T12:28:13;1.97;;;1.70;;
37047;SDS011;23227;48.780;9.210;2024-03-08T12:31:17;2.57;;;1.83;;
37047;SDS011;23227;48.780;9.210;2024-03-08T12:34:23;2.70;;;2.00;;
37047;SDS011;23227;48.780;9.210;2024-03-08T12:37:26;2.10;;;1.67;;
37047;SDS011;23227;48.780;9.210;2024-03-08T12:40:29;2.13;;;1.92;;
37047;SDS011;23227;48.780;9.210;2024-03-08T12:43:33;1.90;;;1.53;;
37047;SDS011;23227;48.780;9.210;2024-03-08T12:46:36;2.10;;;1.73;;
37047;SDS011;23227;48.780;9.210;2024-03-08T12:49:42;2.70;;;1.97;;
37047;SDS011;23227;48.780;9.210;2024-03-08T12:52:46;2.33;;;1.77;;
37047;SDS011;23227;48.780;9.210;2024-03-08T12:55:52;2.37;;;1.87;;
37047;SDS011;23227;48.780;9.210;2024-03-08T12:58:57;2.03;;;1.53;;
37047;SDS011;23227;48.780;9.210;2024-03-08T13:02:00;1.90;;;1.70;;
37047;SDS011;23227;48.780;9.210;2024-03-08T13:05:04;2.33;;;1.83;;
37047;SDS011;23227;48.780;9.210;2024-03-08T13:08:08;2.23;;;1.67;;
37047;SDS011;23227;48.780;9.210;2024-03-08T13:11:14;2.37;;;1.83;;
37047;SDS011;23227;48.780;9.210;2024-03-08T13:14:16;2.92;;;1.83;;
37047;SDS011;23227;48.780;9.210;2024-03-08T13:17:19;2.03;;;1.65;;
37047;SDS011;23227;48.780;9.210;2024-03-08T13:20:23;2.25;;;1.60;;
37047;SDS011;23227;48.780;9.210;2024-03-08T13:23:40;2.00;;;1.50;;
37047;SDS011;23227;48.780;9.210;2024-03-08T13:26:47;2.30;;;1.77;;
37047;SDS011;23227;48.780;9.210;2024-03-08T13:29:51;1.93;;;1.70;;
37047;SDS011;23227;48.780;9.210;2024-03-08T13:32:53;2.50;;;1.95;;
37047;SDS011;23227;48.780;9.210;2024-03-08T13:35:58;1.98;;;1.63;;
37047;SDS011;23227;48.780;9.210;2024-03-08T13:39:06;2.00;;;1.53;;
37047;SDS011;23227;48.780;9.210;2024-03-08T13:42:16;2.13;;;1.57;;
37047;SDS011;23227;48.780;9.210;2024-03-08T13:45:20;1.87;;;1.60;;
37047;SDS011;23227;48.780;9.210;2024-03-08T13:48:25;2.37;;;1.57;;
37047;SDS011;23227;48.780;9.210;2024-03-08T13:51:29;2.22;;;1.80;;
37047;SDS011;23227;48.780;9.210;2024-03-08T13:54:32;1.90;;;1.70;;
37047;SDS011;23227;48.780;9.210;2024-03-08T13:57:35;2.17;;;1.83;;
37047;SDS011;23227;48.780;9.210;2024-03-08T14:00:37;2.53;;;1.90;;
37047;SDS011;23227;48.780;9.210;2024-03-08T14:03:42;1.87;;;1.60;;
37047;SDS011;23227;48.780;9.210;2024-03-08T14:06:46;2.38;;;1.90;;
37047;SDS011;23227;48.780;9.210;2024-03-08T14:09:50;2.40;;;1.70;;
37047;SDS011;23227;48.780;9.210;2024-03-08T14:12:54;2.20;;;1.40;;
37047;SDS011;23227;48.780;9.210;2024-03-08T14:15:56;2.92;;;1.73;;
37047;SDS011;23227;48.780;9.210;2024-03-08T14:18:59;2.72;;;2.05;;
37047;SDS011;23227;48.780;9.210;2024-03-08T14:22:08;2.57;;;1.80;;
37047;SDS011;23227;48.780;9.210;2024-03-08T14:25:15;2.97;;;2.00;;
37047;SDS011;23227;48.780;9.210;2024-03-08T14:28:19;1.50;;;1.40;;
37047;SDS011;23227;48.780;9.210;2024-03-08T14:31:24;1.67;;;1.40;;
37047;SDS011;23227;48.780;9.210;2024-03-08T14:34:27;1.90;;;1.60;;
37047;SDS011;23227;48.780;9.210;2024-03-08T14:37:32;2.50;;;1.90;;
37047;SDS011;23227;48.780;9.210;2024-03-08T14:40:35;1.60;;;1.50;;
37047;SDS011;23227;48.780;9.210;2024-03-08T14:43:38;1.92;;;1.65;;
37047;SDS011;23227;48.780;9.210;2024-03-08T14:46:40;2.60;;;2.00;;
37047;SDS011;23227;48.780;9.210;2024-03-08T14:49:44;1.30;;;1.20;;
37047;SDS011;23227;48.780;9.210;2024-03-08T14:52:48;1.98;;;1.67;;
37047;SDS011;23227;48.780;9.210;2024-03-08T14:55:52;1.80;;;1.60;;
37047;SDS011;23227;48.780;9.210;2024-03-08T14:58:54;1.58;;;1.40;;
37047;SDS011;23227;48.780;9.210;2024-03-08T15:01:59;1.90;;;1.70;;
37047;SDS011;23227;48.780;9.210;2024-03-08T15:05:03;2.93;;;2.00;;
37047;SDS011;23227;48.780;9.210;2024-03-08T15:08:11;3.47;;;1.50;;
37047;SDS011;23227;48.780;9.210;2024-03-08T15:11:20;2.00;;;1.47;;
37047;SDS011;23227;48.780;9.210;2024-03-08T15:14:26;2.30;;;1.60;;
37047;SDS011;23227;48.780;9.210;2024-03-08T15:17:29;2.25;;;1.95;;
37047;SDS011;23227;48.780;9.210;2024-03-08T15:20:32;2.20;;;1.57;;
37047;SDS011;23227;48.780;9.210;2024-03-08T15:23:37;1.90;;;1.60;;
37047;SDS011;23227;48.780;9.210;2024-03-08T15:26:45;1.80;;;1.47;;
37047;SDS011;23227;48.780;9.210;2024-03-08T15:29:52;2.00;;;1.53;;
37047;SDS011;23227;48.780;9.210;2024-03-08T15:32:56;1.97;;;1.70;;
37047;SDS011;23227;48.780;9.210;2024-03-08T15:36:01;2.40;;;1.83;;
37047;SDS011;23227;48.780;9.210;2024-03-08T15:39:11;1.60;;;1.50;;
37047;SDS011;23227;48.780;9.210;2024-03-08T15:42:16;2.50;;;1.90;;
37047;SDS011;23227;48.780;9.210;2024-03-08T15:45:18;2.50;;;1.83;;
37047;SDS011;23227;48.780;9.210;2024-03-08T15:48:21;2.35;;;1.73;;
37047;SDS011;23227;48.780;9.210;2024-03-08T15:51:23;2.72;;;2.10;;
37047;SDS011;23227;48.780;9.210;2024-03-08T15:54:28;2.23;;;1.50;;
37047;SDS011;23227;48.780;9.210;2024-03-08T15:57:31;2.77;;;1.90;;
37047;SDS011;23227;48.780;9.210;2024-03-08T16:00:34;1.95;;;1.38;;
37047;SDS011;23227;48.780;9.210;2024-03-08T16:03:37;2.00;;;1.73;;
37047;SDS011;23227;48.780;9.210;2024-03-08T16:06:40;2.33;;;1.65;;
37047;SDS011;23227;48.780;9.210;2024-03-08T16:09:44;2.35;;;1.73;;
37047;SDS011;23227;48.780;9.210;2024-03-08T16:12:46;2.27;;;1.80;;
37047;SDS011;23227;48.780;9.210;2024-03-08T16:15:49;1.60;;;1.50;;
37047;SDS011;23227;48.780;9.210;2024-03-08T16:18:52;2.30;;;1.70;;
37047;SDS011;23227;48.780;9.210;2024-03-08T16:21:55;2.58;;;1.73;;
37047;SDS011;23227;48.780;9.210;2024-03-08T16:25:00;2.07;;;1.50;;
37047;SDS011;23227;48.780;9.210;2024-03-08T16:28:05;1.97;;;1.63;;
37047;SDS011;23227;48.780;9.210;2024-03-08T16:31:09;2.07;;;1.53;;
37047;SDS011;23227;48.780;9.210;2024-03-08T16:34:13;1.63;;;1.40;;
37047;SDS011;23227;48.780;9.210;2024-03-08T16:37:17;1.87;;;1.60;;
37047;SDS011;23227;48.780;9.210;2024-03-08T16:40:21;2.80;;;1.65;;
37047;SDS011;23227;48.780;9.210;2024-03-08T16:43:25;3.40;;;1.70;;
37047;SDS011;23227;48.780;9.210;2024-03-08T16:46:28;2.65;;;1.80;;
37047;SDS011;23227;48.780;9.210;2024-03-08T16:49:35;2.33;;;1.73;;
37047;SDS011;23227;48.780;9.210;2024-03-08T16:52:38;2.33;;;1.60;;
37047;SDS011;23227;48.780;9.210;2024-03-08T16:55:42;2.35;;;1.85;;
37047;SDS011;23227;48.780;9.210;2024-03-08T16:58:45;2.10;;;1.70;;
37047;SDS011;23227;48.780;9.210;2024-03-08T17:01:48;2.13;;;1.65;;
37047;SDS011;23227;48.780;9.210;2024-03-08T17:04:51;2.50;;;1.83;;
37047;SDS011;23227;48.780;9.210;2024-03-08T17:07:54;2.22;;;1.83;;
37047;SDS011;23227;48.780;9.210;2024-03-08T17:11:00;2.83;;;1.50;;
37047;SDS011;23227;48.780;9.210;2024-03-08T17:14:03;1.83;;;1.40;;
37047;SDS011;23227;48.780;9.210;2024-03-08T17:17:06;1.97;;;1.70;;
37047;SDS011;23227;48.780;9.210;2024-03-08T17:20:10;2.00;;;1.80;;
37047;SDS011;23227;48.780;9.210;2024-03-08T17:23:16;3.17;;;1.87;;
37047;SDS011;23227;48.780;9.210;2024-03-08T17:26:20;3.88;;;2.10;;
37047;SDS011;23227;48.780;9.210;2024-03-08T17:29:25;2.40;;;1.90;;
37047;SDS011;23227;48.780;9.210;2024-03-08T17:32:28;3.30;;;1.80;;
37047;SDS011;23227;48.780;9.210;2024-03-08T17:35:34;3.70;;;2.43;;
37047;SDS011;23227;48.780;9.210;2024-03-08T17:38:39;4.87;;;2.07;;
37047;SDS011;23227;48.780;9.210;2024-03-08T17:41:51;3.53;;;2.27;;
37047;SDS011;23227;48.780;9.210;2024-03-08T17:44:55;2.73;;;1.80;;
37047;SDS011;23227;48.780;9.210;2024-03-08T17:48:02;5.17;;;2.00;;
37047;SDS011;23227;48.780;9.210;2024-03-08T17:51:06;3.00;;;1.90;;
37047;SDS011;23227;48.780;9.210;2024-03-08T17:54:08;2.00;;;1.50;;
37047;SDS011;23227;48.780;9.210;2024-03-08T17:57:16;4.30;;;2.10;;
37047;SDS011;23227;48.780;9.210;2024-03-08T18:00:21;2.77;;;2.30;;
37047;SDS011;23227;48.780;9.210;2024-03-08T18:03:30;2.47;;;1.73;;
37047;SDS011;23227;48.780;9.210;2024-03-08T18:06:33;2.30;;;1.80;;
37047;SDS011;23227;48.780;9.210;2024-03-08T18:09:37;2.40;;;1.80;;
37047;SDS011;23227;48.780;9.210;2024-03-08T18:12:41;5.05;;;1.70;;
37047;SDS011;23227;48.780;9.210;2024-03-08T18:15:46;2.83;;;2.00;;
37047;SDS011;23227;48.780;9.210;2024-03-08T18:18:49;2.67;;;1.83;;
37047;SDS011;23227;48.780;9.210;2024-03-08T18:21:54;2.87;;;2.17;;
37047;SDS011;23227;48.780;9.210;2024-03-08T18:24:57;5.82;;;1.80;;
37047;SDS011;23227;48.780;9.210;2024-03-08T18:28:01;2.08;;;1.50;;
37047;SDS011;23227;48.780;9.210;2024-03-08T18:31:09;2.20;;;1.70;;
37047;SDS011;23227;48.780;9.210;2024-03-08T18:34:12;3.13;;;1.77;;
37047;SDS011;23227;48.780;9.210;2024-03-08T18:37:15;2.97;;;1.58;;
37047;SDS011;23227;48.780;9.210;2024-03-08T18:40:18;3.83;;;2.10;;
37047;SDS011;23227;48.780;9.210;2024-03-08T18:43:25;3.87;;;1.80;;
37047;SDS011;23227;48.780;9.210;2024-03-08T18:46:29;5.13;;;1.97;;